Terminal Aerodrome Forecast
Issued by NWS

Home | Current Version | Previous Version | Text Only | Print | Product List | Glossary On
Versions: 1 2 3 4 5 6 7 8 9 10 11 12 13 14 15
000
FTAK31 PAJN 290540
TAFAGY
TAF
PAGY 290540Z 2906/3006 21012G20KT P6SM OVC070
     FM290900 VRB03KT P6SM BKN080
     FM291600 03004KT P6SM SCT090
     FM292000 04008KT P6SM FEW090
     FM300300 VRB03KT P6SM FEW090
      AMD LTD TO CLD VIS AND WIND=

USA.gov is the U.S. government's official web portal to all federal, state and local government web resources and services.